Time;durP1;ratioP1;P1;durP2;ratioP2;P2;SDS_P1;SDS_P2;PMS_P1;PMS_P2;Temp;Humidity;BMP_temperature;BMP_pressure;BME280_temperature;BME280_humidity;BME280_pressure;Samples;Min_cycle;Max_cycle;Signal;HPM_P1;HPM_P2
2023/02/14 00:01:17;;;;;;;142.65;32.67;;;2.20;99.90;;;;;;6147673;28;20051;-77
2023/02/14 00:04:19;;;;;;;126.78;31.20;;;2.30;99.90;;;;;;6148085;29;20536;-77
2023/02/14 00:07:21;;;;;;;102.85;30.35;;;2.20;99.90;;;;;;6148453;29;20050;-77
2023/02/14 00:10:23;;;;;;;82.40;28.58;;;2.30;99.90;;;;;;6149233;28;20066;-77
2023/02/14 00:13:24;;;;;;;104.00;29.70;;;2.30;99.90;;;;;;6163303;28;20055;-77
2023/02/14 00:16:26;;;;;;;110.07;32.28;;;2.30;99.90;;;;;;6173048;28;20047;-77
2023/02/14 00:19:28;;;;;;;95.90;29.73;;;2.30;99.90;;;;;;6172456;28;20569;-77
2023/02/14 00:22:30;;;;;;;107.28;27.45;;;2.30;99.90;;;;;;6172085;28;20050;-77
2023/02/14 00:25:33;;;;;;;111.88;28.38;;;2.30;99.90;;;;;;6173289;28;20053;-77
2023/02/14 00:28:35;;;;;;;105.32;26.30;;;2.30;99.90;;;;;;6173138;28;20135;-77
2023/02/14 00:31:38;;;;;;;119.13;28.02;;;2.30;99.90;;;;;;6174426;28;20051;-77
2023/02/14 00:34:40;;;;;;;145.48;31.95;;;2.30;99.90;;;;;;6176041;28;20050;-77
2023/02/14 00:41:39;;;;;;;108.88;25.95;;;2.20;99.90;;;;;;6174584;28;20046;-78
2023/02/14 00:44:41;;;;;;;170.73;35.20;;;2.10;99.90;;;;;;6176391;28;20051;-77
2023/02/14 00:47:50;;;;;;;101.65;29.50;;;2.10;99.90;;;;;;6175274;28;20054;-77
2023/02/14 00:50:52;;;;;;;102.63;29.55;;;1.90;99.90;;;;;;6155782;28;20051;-77
2023/02/14 00:53:53;;;;;;;102.65;27.30;;;1.90;99.90;;;;;;6150865;28;20413;-77
2023/02/14 00:56:55;;;;;;;98.15;26.15;;;1.80;99.90;;;;;;6152113;28;20464;-77
2023/02/14 00:59:57;;;;;;;125.10;29.95;;;1.80;99.90;;;;;;6153701;28;20497;-77
2023/02/14 01:03:00;;;;;;;84.47;26.35;;;1.80;99.90;;;;;;6155308;29;20058;-77
2023/02/14 01:06:02;;;;;;;106.07;28.02;;;1.80;99.90;;;;;;6154773;28;20108;-77
2023/02/14 01:09:04;;;;;;;93.40;28.52;;;1.80;99.90;;;;;;6154131;28;20513;-77
2023/02/14 01:12:06;;;;;;;77.15;26.67;;;1.90;99.90;;;;;;6158664;28;20051;-77
2023/02/14 01:15:08;;;;;;;105.00;28.27;;;2.00;99.90;;;;;;6172260;28;20054;-77
2023/02/14 01:18:12;;;;;;;76.28;25.60;;;2.00;99.90;;;;;;6149630;28;20052;-77
2023/02/14 01:21:16;;;;;;;65.63;26.58;;;2.10;99.90;;;;;;6130092;28;20051;-77
2023/02/14 01:24:18;;;;;;;87.35;25.80;;;2.10;99.90;;;;;;6129255;29;20053;-77
2023/02/14 01:27:26;;;;;;;70.25;26.75;;;2.10;99.90;;;;;;6129072;29;20052;-77
2023/02/14 01:30:28;;;;;;;105.60;26.60;;;2.10;99.90;;;;;;6117400;29;20048;-77
2023/02/14 01:33:31;;;;;;;82.97;25.77;;;2.10;99.90;;;;;;6127854;28;20051;-77
2023/02/14 01:36:35;;;;;;;95.70;27.23;;;2.10;99.90;;;;;;6128108;29;20059;-77
2023/02/14 01:39:37;;;;;;;84.65;25.20;;;2.10;99.90;;;;;;6128429;29;20078;-77
2023/02/14 01:42:39;;;;;;;77.13;23.80;;;2.00;99.90;;;;;;6127861;29;20075;-77
2023/02/14 01:45:41;;;;;;;78.35;23.85;;;1.80;99.90;;;;;;6127792;28;20071;-77
2023/02/14 01:48:44;;;;;;;83.60;28.02;;;1.80;99.90;;;;;;6128053;29;20071;-77
2023/02/14 01:51:50;;;;;;;59.03;24.23;;;1.80;99.90;;;;;;6117366;29;20059;-77
2023/02/14 01:54:56;;;;;;;95.20;26.15;;;1.90;99.90;;;;;;6126905;29;20051;-78
2023/02/14 01:58:01;;;;;;;104.35;28.75;;;1.90;99.90;;;;;;6128452;28;20051;-77
2023/02/14 02:01:31;;;;;;;82.55;26.40;;;2.00;99.90;;;;;;6127285;29;20066;-78
2023/02/14 02:04:38;;;;;;;63.30;26.85;;;2.00;99.90;;;;;;6127162;29;20048;-78
2023/02/14 02:07:40;;;;;;;71.75;26.63;;;2.00;99.90;;;;;;6127132;29;20048;-77
2023/02/14 02:10:42;;;;;;;97.90;27.42;;;2.10;99.90;;;;;;6127036;29;20434;-77
2023/02/14 02:13:43;;;;;;;52.45;24.60;;;2.10;99.90;;;;;;6138683;28;20547;-77
2023/02/14 02:17:11;;;;;;;79.70;24.33;;;2.10;99.90;;;;;;6171408;28;20687;-77
2023/02/14 02:20:54;;;;;;;62.95;26.38;;;2.10;99.90;;;;;;6175171;28;20053;-77
2023/02/14 02:24:21;;;;;;;70.47;24.23;;;2.10;99.90;;;;;;6175203;28;20054;-77
2023/02/14 02:27:43;;;;;;;54.75;23.80;;;1.90;99.90;;;;;;6175386;28;20043;-77
2023/02/14 02:31:16;;;;;;;98.65;27.85;;;1.90;99.90;;;;;;6174544;28;20046;-77
2023/02/14 02:34:54;;;;;;;69.68;22.65;;;1.90;99.90;;;;;;6175188;28;20559;-77
2023/02/14 02:38:17;;;;;;;52.05;22.30;;;1.80;99.90;;;;;;6175605;28;20061;-77
2023/02/14 02:41:29;;;;;;;112.25;25.00;;;1.80;99.90;;;;;;6168307;28;20078;-77
2023/02/14 02:44:41;;;;;;;61.40;22.15;;;1.80;99.90;;;;;;6151113;29;20047;-78
2023/02/14 02:47:53;;;;;;;61.13;21.02;;;1.80;99.90;;;;;;6150497;29;20051;-78
2023/02/14 02:54:25;;;;;;;64.22;23.27;;;1.70;99.90;;;;;;6151169;29;20050;-77
2023/02/14 02:57:32;;;;;;;157.80;31.17;;;1.60;99.90;;;;;;6150639;29;20051;-78
2023/02/14 03:00:33;;;;;;;96.85;25.55;;;1.60;99.90;;;;;;6150738;29;20054;-77
2023/02/14 03:06:59;;;;;;;107.93;26.15;;;1.60;99.90;;;;;;6150795;29;20110;-78
2023/02/14 03:10:05;;;;;;;70.57;27.75;;;1.60;99.90;;;;;;6150313;28;20047;-77
2023/02/14 03:13:30;;;;;;;88.15;25.55;;;1.60;99.90;;;;;;6150760;29;20075;-77
2023/02/14 03:16:35;;;;;;;102.55;26.05;;;1.60;99.90;;;;;;6156849;28;20110;-78
2023/02/14 03:23:20;;;;;;;102.60;24.60;;;1.60;99.90;;;;;;6149777;28;20051;-77
2023/02/14 03:26:29;;;;;;;54.53;21.58;;;1.60;99.90;;;;;;6150040;28;20418;-77
2023/02/14 03:29:40;;;;;;;96.65;23.75;;;1.60;99.90;;;;;;6150259;28;20050;-78
2023/02/14 03:32:47;;;;;;;105.43;24.35;;;1.60;99.90;;;;;;6150097;28;20433;-77
2023/02/14 03:35:56;;;;;;;104.55;26.88;;;1.50;99.90;;;;;;6150283;28;20183;-77
2023/02/14 03:39:05;;;;;;;74.13;25.77;;;1.50;99.90;;;;;;6149545;29;20070;-78
2023/02/14 03:42:16;;;;;;;92.63;27.30;;;1.60;99.90;;;;;;6149373;28;20051;-77
2023/02/14 03:45:26;;;;;;;78.15;24.77;;;1.60;99.90;;;;;;6149961;28;20051;-77
2023/02/14 03:48:33;;;;;;;59.30;24.13;;;1.60;99.90;;;;;;6149349;28;20429;-78
2023/02/14 03:51:37;;;;;;;138.75;29.17;;;1.60;99.90;;;;;;6150085;29;20058;-77
2023/02/14 03:54:41;;;;;;;69.40;24.20;;;1.70;99.90;;;;;;6149183;29;20541;-77
2023/02/14 03:57:55;;;;;;;58.50;24.35;;;1.70;99.90;;;;;;6149507;28;20130;-78
2023/02/14 04:01:01;;;;;;;99.47;30.52;;;1.60;99.90;;;;;;6149461;28;20054;-77
2023/02/14 04:04:05;;;;;;;53.70;24.00;;;1.70;99.90;;;;;;6149807;28;20417;-78
2023/02/14 04:07:11;;;;;;;74.70;28.23;;;1.60;99.90;;;;;;6149758;29;20047;-78
2023/02/14 04:10:14;;;;;;;83.60;26.27;;;1.60;99.90;;;;;;6148691;28;20502;-77
2023/02/14 04:13:17;;;;;;;78.68;26.17;;;1.60;99.90;;;;;;6148511;28;20058;-78
2023/02/14 04:16:18;;;;;;;53.10;29.23;;;1.70;99.90;;;;;;6156709;28;20051;-77
2023/02/14 04:19:22;;;;;;;54.55;27.55;;;1.70;99.90;;;;;;6173731;28;20057;-77
2023/02/14 04:22:23;;;;;;;67.70;28.02;;;1.70;99.90;;;;;;6172883;28;20089;-78
2023/02/14 04:25:26;;;;;;;72.20;27.92;;;1.70;99.90;;;;;;6173071;28;20043;-77
2023/02/14 04:28:28;;;;;;;56.72;27.98;;;1.60;99.90;;;;;;6172197;28;20050;-77
2023/02/14 04:31:30;;;;;;;57.90;28.38;;;1.60;99.90;;;;;;6172381;28;20058;-77
2023/02/14 04:34:31;;;;;;;57.95;28.00;;;1.60;99.90;;;;;;6176518;28;20050;-77
2023/02/14 04:37:33;;;;;;;54.67;25.80;;;1.60;99.90;;;;;;6161575;28;20058;-77
2023/02/14 04:40:36;;;;;;;63.50;25.98;;;1.60;99.90;;;;;;6153158;28;20058;-77
2023/02/14 04:43:38;;;;;;;113.07;30.15;;;1.60;99.90;;;;;;6153019;29;20056;-77
2023/02/14 04:46:40;;;;;;;96.20;27.00;;;1.50;99.90;;;;;;6152562;29;20047;-77
2023/02/14 04:49:41;;;;;;;73.93;27.40;;;1.40;99.90;;;;;;6152504;28;20058;-77
2023/02/14 04:52:43;;;;;;;129.43;34.47;;;1.40;99.90;;;;;;6152632;28;20051;-77
2023/02/14 04:55:48;;;;;;;126.93;29.45;;;1.30;99.90;;;;;;6153063;28;20055;-78
2023/02/14 04:58:50;;;;;;;64.35;25.25;;;1.30;99.90;;;;;;6152694;29;20047;-78
2023/02/14 05:01:52;;;;;;;98.97;27.80;;;1.30;99.90;;;;;;6152887;28;20054;-77
2023/02/14 05:04:54;;;;;;;146.18;29.02;;;1.30;99.90;;;;;;6150949;28;20518;-78
2023/02/14 05:07:56;;;;;;;77.72;27.92;;;1.20;99.90;;;;;;6152696;28;20051;-77
2023/02/14 05:10:59;;;;;;;56.63;25.02;;;1.20;99.90;;;;;;6153959;28;20055;-78
2023/02/14 05:14:00;;;;;;;60.72;26.75;;;1.20;99.90;;;;;;6153254;28;20062;-77
2023/02/14 05:17:02;;;;;;;117.95;31.30;;;1.20;99.90;;;;;;6157288;28;20047;-77
2023/02/14 05:20:05;;;;;;;95.22;30.52;;;1.20;99.90;;;;;;6152412;28;20549;-77
2023/02/14 05:23:12;;;;;;;91.63;28.85;;;1.10;99.90;;;;;;6151835;28;20710;-77
2023/02/14 05:26:15;;;;;;;97.47;31.38;;;1.10;99.90;;;;;;6151279;28;20051;-77
2023/02/14 05:29:20;;;;;;;80.82;29.48;;;1.10;99.90;;;;;;6151142;28;20509;-78
2023/02/14 05:32:21;;;;;;;97.90;29.15;;;1.10;99.90;;;;;;6150999;28;20055;-77
2023/02/14 05:35:23;;;;;;;83.78;29.35;;;1.00;99.90;;;;;;6150922;29;20652;-77
2023/02/14 05:38:25;;;;;;;59.08;26.48;;;1.00;99.90;;;;;;6150915;28;20046;-77
2023/02/14 05:41:28;;;;;;;89.75;31.17;;;1.00;99.90;;;;;;6150840;28;20051;-78
2023/02/14 05:44:30;;;;;;;55.75;28.63;;;1.00;99.90;;;;;;6150418;28;20051;-77
2023/02/14 05:47:32;;;;;;;54.85;28.30;;;1.00;99.90;;;;;;6151763;29;20058;-77
2023/02/14 05:50:34;;;;;;;62.10;29.77;;;1.10;99.90;;;;;;6150458;28;20047;-77
2023/02/14 05:53:36;;;;;;;63.67;31.02;;;1.10;99.90;;;;;;6150358;28;20058;-77
2023/02/14 05:56:39;;;;;;;59.47;28.73;;;1.20;99.90;;;;;;6150473;28;20062;-77
2023/02/14 05:59:41;;;;;;;64.00;29.75;;;1.20;99.90;;;;;;6149896;28;20044;-77
2023/02/14 06:02:42;;;;;;;77.55;28.42;;;1.20;99.90;;;;;;6150932;29;20163;-78
2023/02/14 06:05:44;;;;;;;54.97;26.35;;;1.20;99.90;;;;;;6150463;28;20527;-78
2023/02/14 06:08:46;;;;;;;63.15;28.00;;;1.20;99.90;;;;;;6151496;28;20047;-78
2023/02/14 06:11:49;;;;;;;60.38;28.25;;;1.20;99.90;;;;;;6150341;28;20070;-78
2023/02/14 06:14:51;;;;;;;59.55;28.38;;;1.20;99.90;;;;;;6151740;29;20054;-78
2023/02/14 06:17:53;;;;;;;59.90;27.63;;;1.30;99.90;;;;;;6161967;28;20151;-78
2023/02/14 06:20:55;;;;;;;64.68;31.00;;;1.30;99.90;;;;;;6176242;28;20047;-78
2023/02/14 06:23:57;;;;;;;55.90;29.50;;;1.30;99.90;;;;;;6180756;28;20058;-78
2023/02/14 06:27:00;;;;;;;48.35;27.25;;;1.30;99.90;;;;;;6174821;28;20131;-78
2023/02/14 06:30:02;;;;;;;54.70;25.98;;;1.30;99.90;;;;;;6171957;28;20046;-78
2023/02/14 06:33:04;;;;;;;57.30;26.45;;;1.30;99.90;;;;;;6148289;28;20050;-79
2023/02/14 06:36:07;;;;;;;86.90;37.90;;;1.30;99.90;;;;;;6155721;28;20429;-78
2023/02/14 06:39:08;;;;;;;97.20;49.92;;;1.30;99.90;;;;;;6153184;29;20039;-79
2023/02/14 06:42:11;;;;;;;71.65;33.90;;;1.30;99.90;;;;;;6148638;29;20059;-78
2023/02/14 06:45:13;;;;;;;50.30;27.50;;;1.30;99.90;;;;;;6151079;29;20141;-78
2023/02/14 06:48:15;;;;;;;53.22;25.77;;;1.30;99.90;;;;;;6151499;28;20044;-78
2023/02/14 06:51:16;;;;;;;64.88;31.25;;;1.30;99.90;;;;;;6151526;29;20062;-79
2023/02/14 06:54:18;;;;;;;55.17;28.58;;;1.30;99.90;;;;;;6151577;28;20055;-79
2023/02/14 06:57:21;;;;;;;51.58;27.90;;;1.30;99.90;;;;;;6151924;28;20054;-78
2023/02/14 07:00:23;;;;;;;54.92;29.73;;;1.30;99.90;;;;;;6150474;28;20059;-78
2023/02/14 07:03:25;;;;;;;44.00;26.65;;;1.40;99.90;;;;;;6151098;29;20051;-78
2023/02/14 07:06:27;;;;;;;55.15;25.35;;;1.40;99.90;;;;;;6150500;28;20047;-78
2023/02/14 07:09:28;;;;;;;49.45;27.30;;;1.40;99.90;;;;;;6150867;28;20050;-78
2023/02/14 07:12:31;;;;;;;55.08;27.27;;;1.40;99.90;;;;;;6150251;28;20536;-78
2023/02/14 07:15:33;;;;;;;49.58;25.17;;;1.40;99.90;;;;;;6151192;29;20588;-78
2023/02/14 07:18:35;;;;;;;52.30;25.77;;;1.40;99.90;;;;;;6154720;28;20054;-79
2023/02/14 07:21:37;;;;;;;61.72;28.88;;;1.40;99.90;;;;;;6170586;28;20058;-78
2023/02/14 07:24:38;;;;;;;55.38;25.90;;;1.40;99.90;;;;;;6174648;28;20167;-78
2023/02/14 07:27:41;;;;;;;54.88;26.30;;;1.50;99.90;;;;;;6174223;28;20046;-78
2023/02/14 07:30:43;;;;;;;59.17;27.25;;;1.50;99.90;;;;;;6174557;28;20417;-78
2023/02/14 07:33:45;;;;;;;49.70;27.40;;;1.50;99.90;;;;;;6163887;28;20047;-78
2023/02/14 07:36:46;;;;;;;51.30;26.67;;;1.60;99.90;;;;;;6153938;28;20062;-79
2023/02/14 07:39:48;;;;;;;69.32;25.80;;;1.60;99.90;;;;;;6150748;28;20201;-78
2023/02/14 07:42:54;;;;;;;77.15;25.67;;;1.60;99.90;;;;;;6149662;29;20055;-78
2023/02/14 07:45:56;;;;;;;58.38;24.40;;;1.50;99.90;;;;;;6149795;28;20054;-79
2023/02/14 07:48:58;;;;;;;69.28;28.65;;;1.30;99.90;;;;;;6149740;28;20099;-80
2023/02/14 07:52:02;;;;;;;81.40;29.23;;;1.30;99.90;;;;;;6148983;28;20059;-79
2023/02/14 07:55:04;;;;;;;46.40;25.23;;;1.30;99.90;;;;;;6149147;29;20428;-79
2023/02/14 07:58:07;;;;;;;52.70;27.42;;;1.30;99.90;;;;;;6150391;29;20051;-79
2023/02/14 08:01:09;;;;;;;61.78;32.00;;;1.40;99.90;;;;;;6153077;29;20054;-81
2023/02/14 08:04:12;;;;;;;49.45;28.55;;;1.40;99.90;;;;;;6150992;28;20043;-80
2023/02/14 08:07:14;;;;;;;55.08;26.70;;;1.50;99.90;;;;;;6155283;28;20148;-81
2023/02/14 08:10:16;;;;;;;57.58;28.90;;;1.50;99.90;;;;;;6152344;28;20054;-79
2023/02/14 08:13:20;;;;;;;47.58;26.02;;;1.60;99.90;;;;;;6151380;28;20058;-79
2023/02/14 08:16:21;;;;;;;58.60;27.10;;;1.70;99.90;;;;;;6158433;28;20047;-78
2023/02/14 08:19:23;;;;;;;64.38;28.38;;;1.60;99.90;;;;;;6165337;28;20042;-79
2023/02/14 08:22:25;;;;;;;53.28;26.13;;;1.60;99.90;;;;;;6171089;28;20062;-79
2023/02/14 08:25:26;;;;;;;65.78;27.08;;;1.60;99.90;;;;;;6174878;28;20421;-78
2023/02/14 08:28:31;;;;;;;54.95;26.95;;;1.70;99.90;;;;;;6174651;28;20532;-79
2023/02/14 08:31:33;;;;;;;49.70;25.67;;;1.70;99.90;;;;;;6175411;28;20058;-79
2023/02/14 08:34:35;;;;;;;58.97;28.73;;;1.70;99.90;;;;;;6155404;28;20047;-78
2023/02/14 08:37:36;;;;;;;49.40;28.00;;;1.70;99.90;;;;;;6150821;28;20051;-79
2023/02/14 08:40:38;;;;;;;48.30;28.55;;;1.80;99.90;;;;;;6150393;28;20054;-79
2023/02/14 08:43:41;;;;;;;67.13;28.48;;;1.80;99.90;;;;;;6149815;28;20055;-79
2023/02/14 08:46:43;;;;;;;53.95;27.55;;;1.80;99.90;;;;;;6152346;29;20051;-79
2023/02/14 08:49:45;;;;;;;53.10;24.35;;;1.80;99.90;;;;;;6150070;29;20425;-79
2023/02/14 08:52:46;;;;;;;58.33;25.83;;;1.80;99.90;;;;;;6150509;28;20063;-79
2023/02/14 08:55:48;;;;;;;53.47;25.85;;;1.80;99.90;;;;;;6151600;28;20051;-80
2023/02/14 08:58:53;;;;;;;41.55;25.30;;;1.70;99.90;;;;;;6150180;29;20051;-79
2023/02/14 09:01:55;;;;;;;53.25;27.50;;;1.60;99.90;;;;;;6151797;28;20469;-82
2023/02/14 09:04:57;;;;;;;48.63;25.85;;;1.70;99.90;;;;;;6150527;28;20055;-79
2023/02/14 09:07:58;;;;;;;58.97;25.80;;;1.80;99.90;;;;;;6152636;28;20062;-80
2023/02/14 09:11:06;;;;;;;38.90;24.20;;;1.70;99.90;;;;;;6155498;28;20062;-79
2023/02/14 09:14:09;;;;;;;52.25;25.75;;;1.70;99.90;;;;;;6149805;28;20043;-79
2023/02/14 09:17:12;;;;;;;54.88;26.05;;;1.80;99.90;;;;;;6149257;28;20058;-79
2023/02/14 09:20:15;;;;;;;50.33;28.42;;;1.70;99.90;;;;;;6154725;28;20047;-78
2023/02/14 09:23:16;;;;;;;46.58;26.33;;;1.80;99.90;;;;;;6155935;28;20048;-79
2023/02/14 09:26:19;;;;;;;53.25;27.55;;;1.80;99.90;;;;;;6153690;28;20043;-80
2023/02/14 09:29:22;;;;;;;56.83;29.02;;;1.90;99.90;;;;;;6153819;28;20051;-79
2023/02/14 09:32:25;;;;;;;54.05;28.50;;;2.00;99.90;;;;;;6155010;28;20058;-81
2023/02/14 09:35:26;;;;;;;58.30;27.13;;;2.10;99.90;;;;;;6154311;29;20055;-79
2023/02/14 09:38:28;;;;;;;39.85;26.35;;;2.10;99.90;;;;;;6154619;28;20047;-79
2023/02/14 09:42:09;;;;;;;48.08;26.83;;;2.00;99.90;;;;;;6153462;28;20051;-80
2023/02/14 09:45:15;;;;;;;46.95;27.42;;;2.00;99.90;;;;;;6160049;28;20071;-79
2023/02/14 09:48:26;;;;;;;48.08;26.10;;;2.20;99.90;;;;;;6166866;28;20039;-79
2023/02/14 09:51:31;;;;;;;44.35;26.95;;;2.30;99.90;;;;;;6159244;29;20043;-78
2023/02/14 09:54:35;;;;;;;44.58;25.00;;;2.40;99.90;;;;;;6165353;28;20098;-80
2023/02/14 09:57:43;;;;;;;48.15;27.67;;;2.40;99.90;;;;;;6157147;28;20480;-80
2023/02/14 10:00:52;;;;;;;46.50;26.15;;;2.50;99.90;;;;;;6153899;28;20043;-80
2023/02/14 10:04:06;;;;;;;44.92;24.23;;;2.50;99.90;;;;;;6153803;28;20039;-80
2023/02/14 10:07:17;;;;;;;47.72;26.45;;;2.60;99.90;;;;;;6155840;29;20051;-81
2023/02/14 10:10:25;;;;;;;44.60;26.27;;;2.60;99.90;;;;;;6154684;28;20366;-80
2023/02/14 10:13:35;;;;;;;48.92;30.08;;;2.70;99.90;;;;;;6154470;28;20047;-80
2023/02/14 10:16:43;;;;;;;42.90;26.77;;;2.70;99.90;;;;;;6155689;28;20055;-79
2023/02/14 10:19:51;;;;;;;52.00;25.75;;;2.80;99.90;;;;;;6154603;28;20078;-80
2023/02/14 10:23:01;;;;;;;53.80;31.00;;;2.80;99.90;;;;;;6169385;28;20054;-80
2023/02/14 10:26:05;;;;;;;43.17;24.48;;;2.90;99.90;;;;;;6180515;28;20520;-80
2023/02/14 10:29:12;;;;;;;45.40;27.13;;;3.00;99.90;;;;;;6183710;28;20417;-80
2023/02/14 10:32:23;;;;;;;45.22;25.77;;;3.10;99.90;;;;;;6182143;28;20478;-81
2023/02/14 10:35:38;;;;;;;45.78;27.25;;;3.10;99.90;;;;;;6158221;29;20062;-79
2023/02/14 10:38:46;;;;;;;46.20;24.45;;;3.20;99.90;;;;;;6161795;29;20047;-80
2023/02/14 10:41:52;;;;;;;46.20;27.20;;;3.20;99.90;;;;;;6159767;28;20043;-80
2023/02/14 10:45:04;;;;;;;51.50;26.17;;;3.30;99.90;;;;;;6160860;29;20055;-80
2023/02/14 10:48:16;;;;;;;41.92;25.02;;;3.40;99.90;;;;;;6143254;28;20043;-80
2023/02/14 10:51:24;;;;;;;50.22;29.33;;;3.50;99.90;;;;;;6161739;29;20102;-80
2023/02/14 10:54:28;;;;;;;43.40;26.38;;;3.60;99.90;;;;;;6163809;28;20051;-80
2023/02/14 10:57:34;;;;;;;44.53;24.35;;;3.60;99.90;;;;;;6163235;28;20043;-81
2023/02/14 11:00:38;;;;;;;45.70;28.85;;;3.70;99.90;;;;;;6165057;28;20652;-79
2023/02/14 11:03:51;;;;;;;45.95;28.00;;;3.80;99.90;;;;;;6160977;28;20058;-80
2023/02/14 11:06:53;;;;;;;41.15;24.52;;;3.80;99.90;;;;;;6164324;29;20062;-81
2023/02/14 11:09:55;;;;;;;38.78;24.25;;;3.80;99.90;;;;;;6166024;28;20043;-80
2023/02/14 11:12:57;;;;;;;39.90;26.25;;;3.70;99.90;;;;;;6160258;28;20047;-80
2023/02/14 11:16:01;;;;;;;48.22;27.00;;;3.70;99.90;;;;;;6155476;28;20055;-80
2023/02/14 11:19:20;;;;;;;41.83;24.25;;;3.70;99.90;;;;;;6154630;29;20062;-80
2023/02/14 11:22:29;;;;;;;43.17;25.85;;;3.60;99.90;;;;;;6158631;28;20051;-80
2023/02/14 11:25:34;;;;;;;45.28;27.88;;;3.60;99.90;;;;;;6156814;28;20458;-78
2023/02/14 11:28:37;;;;;;;48.05;24.77;;;3.80;99.90;;;;;;6151923;28;20083;-81
2023/02/14 11:31:40;;;;;;;42.88;25.95;;;4.00;99.90;;;;;;6163377;29;20046;-83
2023/02/14 11:34:47;;;;;;;39.72;25.65;;;4.10;99.90;;;;;;6156279;28;20118;-82
2023/02/14 11:37:52;;;;;;;44.90;26.20;;;4.20;99.90;;;;;;6153488;28;20055;-81
2023/02/14 11:40:55;;;;;;;42.17;25.50;;;4.30;99.90;;;;;;6154840;28;20043;-80
2023/02/14 11:44:21;;;;;;;35.90;24.17;;;4.40;99.90;;;;;;6153482;28;20055;-82
2023/02/14 11:47:27;;;;;;;41.42;24.63;;;4.50;99.90;;;;;;6155053;29;20047;-81
2023/02/14 11:50:30;;;;;;;44.83;25.95;;;4.50;99.90;;;;;;6152603;28;20055;-81
2023/02/14 11:53:39;;;;;;;40.35;24.25;;;4.60;99.90;;;;;;6152318;28;20551;-81
2023/02/14 11:56:52;;;;;;;36.58;25.13;;;4.80;99.90;;;;;;6153594;28;20051;-81
2023/02/14 11:59:55;;;;;;;40.53;23.90;;;5.00;99.90;;;;;;6152051;28;20134;-80
2023/02/14 12:02:59;;;;;;;44.17;27.25;;;5.20;99.90;;;;;;6152597;29;20058;-81
2023/02/14 12:06:02;;;;;;;40.53;25.30;;;5.30;99.90;;;;;;6152792;28;20047;-81
2023/02/14 12:09:13;;;;;;;43.97;26.63;;;5.30;99.90;;;;;;6151985;28;20086;-82
2023/02/14 12:12:18;;;;;;;36.33;24.45;;;5.40;99.90;;;;;;6151635;28;20058;-79
2023/02/14 12:15:27;;;;;;;43.83;27.58;;;5.50;99.90;;;;;;6156299;29;20054;-79
2023/02/14 12:18:51;;;;;;;43.63;26.27;;;5.60;99.90;;;;;;6152232;28;20058;-79
2023/02/14 12:21:59;;;;;;;42.95;25.35;;;5.50;99.90;;;;;;6152358;28;20035;-79
2023/02/14 12:25:07;;;;;;;35.13;22.42;;;5.50;99.90;;;;;;6162689;28;20413;-79
2023/02/14 12:28:14;;;;;;;38.05;25.83;;;5.60;99.90;;;;;;6174941;28;20051;-79
2023/02/14 12:31:16;;;;;;;32.90;20.77;;;5.80;99.90;;;;;;6179171;28;20043;-79
2023/02/14 12:34:20;;;;;;;40.83;26.83;;;5.90;99.90;;;;;;6154690;28;20306;-79
2023/02/14 12:37:36;;;;;;;40.30;26.08;;;6.10;99.90;;;;;;6156387;28;20056;-78
2023/02/14 12:40:49;;;;;;;40.88;27.08;;;6.20;99.90;;;;;;6153936;28;20066;-80
2023/02/14 12:43:53;;;;;;;43.75;25.60;;;6.20;99.90;;;;;;6154470;28;20062;-83
2023/02/14 12:47:11;;;;;;;40.75;26.67;;;6.30;99.90;;;;;;6155647;29;20058;-82
2023/02/14 12:50:28;;;;;;;39.65;27.52;;;6.40;99.90;;;;;;6152610;28;20134;-80
2023/02/14 12:53:47;;;;;;;42.75;25.85;;;6.50;99.90;;;;;;6153392;28;20066;-81
2023/02/14 12:56:56;;;;;;;43.70;28.52;;;6.60;99.90;;;;;;6157646;28;20078;-81
2023/02/14 13:00:13;;;;;;;42.45;27.02;;;6.70;99.90;;;;;;6158403;28;20051;-82
2023/02/14 13:03:41;;;;;;;45.33;26.50;;;6.90;99.90;;;;;;6159539;29;20063;-81
2023/02/14 13:06:48;;;;;;;41.13;27.73;;;6.90;99.90;;;;;;6125155;29;20490;-80
2023/02/14 13:09:59;;;;;;;44.40;27.58;;;7.10;99.90;;;;;;6159196;28;20350;-82
2023/02/14 13:13:06;;;;;;;43.38;30.15;;;7.30;99.90;;;;;;6156876;28;20529;-80
2023/02/14 13:16:14;;;;;;;39.50;25.42;;;7.40;99.90;;;;;;6157563;28;20047;-82
2023/02/14 13:19:31;;;;;;;37.83;26.80;;;7.50;99.90;;;;;;6158921;29;20051;-82
2023/02/14 13:22:35;;;;;;;70.00;51.88;;;7.50;99.90;;;;;;6156700;28;20051;-84
2023/02/14 13:25:42;;;;;;;75.13;49.03;;;7.50;99.90;;;;;;6157943;28;20058;-82
2023/02/14 13:28:51;;;;;;;41.40;25.67;;;7.60;99.90;;;;;;6181719;28;20047;-81
2023/02/14 13:31:58;;;;;;;50.22;33.05;;;7.60;99.90;;;;;;6181292;28;20062;-82
2023/02/14 13:35:01;;;;;;;70.78;43.30;;;7.70;99.90;;;;;;6162074;28;20047;-82
2023/02/14 13:38:05;;;;;;;44.95;32.55;;;7.90;99.90;;;;;;6156853;28;20500;-81
2023/02/14 13:41:10;;;;;;;40.30;23.58;;;8.30;99.90;;;;;;6155464;28;20054;-81
2023/02/14 13:44:31;;;;;;;44.17;31.40;;;8.90;99.90;;;;;;6156199;28;20411;-82
2023/02/14 13:47:34;;;;;;;45.95;34.22;;;9.40;99.90;;;;;;6159865;29;20055;-80
2023/02/14 13:50:48;;;;;;;41.35;28.40;;;9.80;99.90;;;;;;6157793;28;20054;-82
2023/02/14 13:53:51;;;;;;;41.15;26.42;;;9.80;99.90;;;;;;6157999;28;20047;-80
2023/02/14 13:56:53;;;;;;;43.47;31.02;;;9.90;99.90;;;;;;6156465;28;20051;-82
2023/02/14 14:00:32;;;;;;;37.85;29.08;;;10.30;99.90;;;;;;6158208;28;20047;-82
2023/02/14 14:03:55;;;;;;;37.92;25.30;;;10.60;99.90;;;;;;6156934;29;20148;-80
2023/02/14 14:07:19;;;;;;;34.10;25.42;;;11.20;99.90;;;;;;6155923;29;20058;-82
2023/02/14 14:10:53;;;;;;;33.03;24.30;;;11.60;99.90;;;;;;6154367;28;20055;-81
2023/02/14 14:14:01;;;;;;;31.55;23.05;;;12.10;99.90;;;;;;6147707;28;20545;-81
2023/02/14 14:21:14;;;;;;;32.60;23.20;;;12.90;99.90;;;;;;6145169;28;20043;-81
2023/02/14 14:24:22;;;;;;;36.92;26.98;;;13.10;99.90;;;;;;6155059;28;20051;-81
2023/02/14 14:27:27;;;;;;;39.17;26.92;;;13.20;99.90;;;;;;6167795;28;20133;-81
2023/02/14 14:30:31;;;;;;;35.45;26.05;;;13.50;99.90;;;;;;6179280;28;20050;-81
2023/02/14 14:33:36;;;;;;;33.47;25.88;;;13.80;99.90;;;;;;6167694;28;20047;-81
2023/02/14 14:36:39;;;;;;;36.42;29.30;;;13.90;99.70;;;;;;6156066;28;20078;-80
2023/02/14 14:39:41;;;;;;;49.33;37.20;;;14.10;99.00;;;;;;6153979;28;20539;-80
2023/02/14 14:42:43;;;;;;;31.75;25.08;;;14.20;98.20;;;;;;6151066;29;20047;-79
2023/02/14 14:45:46;;;;;;;36.42;30.15;;;14.20;97.80;;;;;;6152078;29;20059;-80
2023/02/14 14:48:50;;;;;;;37.47;27.40;;;14.20;97.40;;;;;;6152203;29;20050;-79
2023/02/14 14:51:53;;;;;;;36.00;30.13;;;14.20;97.10;;;;;;6153759;28;20047;-81
2023/02/14 14:54:55;;;;;;;37.70;28.48;;;14.30;96.70;;;;;;6153250;29;20047;-80
2023/02/14 14:58:02;;;;;;;33.10;25.55;;;14.40;96.30;;;;;;6153883;29;20413;-81
2023/02/14 15:01:06;;;;;;;36.45;24.45;;;14.40;95.90;;;;;;6153435;29;20050;-82
2023/02/14 15:04:09;;;;;;;35.38;27.73;;;14.40;95.70;;;;;;6151930;28;20054;-80
2023/02/14 15:07:20;;;;;;;39.20;27.88;;;14.60;95.20;;;;;;6152181;29;20122;-80
2023/02/14 15:10:25;;;;;;;39.40;30.48;;;14.70;94.40;;;;;;6154870;28;20049;-80
2023/02/14 15:13:52;;;;;;;32.53;25.55;;;14.60;94.20;;;;;;6152240;28;20047;-80
2023/02/14 15:16:57;;;;;;;32.25;25.35;;;14.50;94.00;;;;;;6152050;28;20134;-80
2023/02/14 15:20:01;;;;;;;32.45;25.25;;;14.40;94.00;;;;;;6151381;28;20047;-80
2023/02/14 15:23:04;;;;;;;33.53;25.50;;;14.20;93.70;;;;;;6152798;29;20048;-80
2023/02/14 15:26:07;;;;;;;33.97;25.63;;;13.90;93.70;;;;;;6152907;28;20047;-80
2023/02/14 15:29:21;;;;;;;32.60;25.10;;;13.70;93.80;;;;;;6155811;28;20047;-79
2023/02/14 15:32:24;;;;;;;30.20;24.92;;;13.60;93.60;;;;;;6151686;28;20050;-80
2023/02/14 15:35:29;;;;;;;34.97;26.63;;;13.20;93.80;;;;;;6151253;29;20062;-79
2023/02/14 15:38:36;;;;;;;34.90;24.50;;;13.00;94.00;;;;;;6152111;28;20058;-80
2023/02/14 15:41:43;;;;;;;37.67;26.98;;;12.70;94.30;;;;;;6151655;28;20047;-80
2023/02/14 15:44:45;;;;;;;37.53;25.00;;;12.60;94.60;;;;;;6152158;28;20051;-80
2023/02/14 15:47:49;;;;;;;36.17;25.65;;;12.30;94.50;;;;;;6152848;28;20058;-80
2023/02/14 15:50:52;;;;;;;30.90;23.33;;;12.10;94.70;;;;;;6151863;29;20051;-79
2023/02/14 15:53:58;;;;;;;35.08;24.52;;;11.70;94.70;;;;;;6150861;28;20497;-80
2023/02/14 15:57:00;;;;;;;34.80;24.80;;;11.10;95.10;;;;;;6151292;28;20059;-79
2023/02/14 16:00:06;;;;;;;38.60;25.42;;;10.50;95.50;;;;;;6150922;28;20047;-79
2023/02/14 16:03:14;;;;;;;48.03;30.10;;;10.00;95.90;;;;;;6151453;29;20039;-80
2023/02/14 16:06:16;;;;;;;;;;;9.60;96.50;;;;;;6150384;28;20385;-79
2023/02/14 16:09:27;;;;;;;42.35;28.73;;;9.20;96.70;;;;;;6150651;28;20338;-78
2023/02/14 16:12:31;;;;;;;42.70;28.10;;;8.80;97.00;;;;;;6151164;28;20050;-80